sensor_id;sensor_type;location;lat;lon;timestamp;pressure;altitude;pressure_sealevel;temperature;humidity
74659;BME280;63186;51.204;6.536;2023-12-20T00:00:37;101107.75;;;6.05;100.00
74659;BME280;63186;51.204;6.536;2023-12-20T00:03:05;101123.03;;;6.06;100.00
74659;BME280;63186;51.204;6.536;2023-12-20T00:05:30;101126.34;;;6.03;100.00
74659;BME280;63186;51.204;6.536;2023-12-20T00:07:58;101118.66;;;5.99;100.00
74659;BME280;63186;51.204;6.536;2023-12-20T00:10:23;101123.56;;;5.92;100.00
74659;BME280;63186;51.204;6.536;2023-12-20T00:12:49;101127.94;;;5.88;100.00
74659;BME280;63186;51.204;6.536;2023-12-20T00:15:14;101130.63;;;5.83;100.00
74659;BME280;63186;51.204;6.536;2023-12-20T00:17:39;101128.19;;;5.82;100.00
74659;BME280;63186;51.204;6.536;2023-12-20T00:20:05;101133.09;;;5.85;100.00
74659;BME280;63186;51.204;6.536;2023-12-20T00:22:31;101133.09;;;5.90;100.00
74659;BME280;63186;51.204;6.536;2023-12-20T00:24:56;101136.72;;;5.95;100.00
74659;BME280;63186;51.204;6.536;2023-12-20T00:27:22;101137.25;;;5.97;100.00
74659;BME280;63186;51.204;6.536;2023-12-20T00:29:47;101138.34;;;5.96;100.00
74659;BME280;63186;51.204;6.536;2023-12-20T00:32:15;101136.41;;;5.92;100.00
74659;BME280;63186;51.204;6.536;2023-12-20T00:34:40;101144.03;;;5.90;100.00
74659;BME280;63186;51.204;6.536;2023-12-20T00:37:05;101145.72;;;5.91;100.00
74659;BME280;63186;51.204;6.536;2023-12-20T00:39:31;101147.88;;;5.89;100.00
74659;BME280;63186;51.204;6.536;2023-12-20T00:41:56;101145.94;;;5.84;100.00
74659;BME280;63186;51.204;6.536;2023-12-20T00:44:21;101145.09;;;5.79;100.00
74659;BME280;63186;51.204;6.536;2023-12-20T00:46:46;101160.41;;;5.80;100.00
74659;BME280;63186;51.204;6.536;2023-12-20T00:49:12;101171.31;;;5.80;100.00
74659;BME280;63186;51.204;6.536;2023-12-20T00:51:37;101159.56;;;5.69;100.00
74659;BME280;63186;51.204;6.536;2023-12-20T00:54:02;101145.88;;;5.64;100.00
74659;BME280;63186;51.204;6.536;2023-12-20T00:56:27;101158.47;;;5.80;100.00
74659;BME280;63186;51.204;6.536;2023-12-20T00:58:53;101157.41;;;5.81;100.00
74659;BME280;63186;51.204;6.536;2023-12-20T01:01:18;101150.31;;;5.85;100.00
74659;BME280;63186;51.204;6.536;2023-12-20T01:03:43;101150.59;;;5.84;100.00
74659;BME280;63186;51.204;6.536;2023-12-20T01:06:08;101156.63;;;5.91;100.00
74659;BME280;63186;51.204;6.536;2023-12-20T01:08:34;101150.91;;;5.92;100.00
74659;BME280;63186;51.204;6.536;2023-12-20T01:11:00;101154.97;;;5.90;100.00
74659;BME280;63186;51.204;6.536;2023-12-20T01:13:25;101166.19;;;5.88;100.00
74659;BME280;63186;51.204;6.536;2023-12-20T01:15:50;101172.44;;;5.84;100.00
74659;BME280;63186;51.204;6.536;2023-12-20T01:18:16;101177.38;;;5.82;100.00
74659;BME280;63186;51.204;6.536;2023-12-20T01:20:41;101177.63;;;5.85;100.00
74659;BME280;63186;51.204;6.536;2023-12-20T01:23:06;101179.81;;;5.83;100.00
74659;BME280;63186;51.204;6.536;2023-12-20T01:25:31;101183.66;;;5.82;100.00
74659;BME280;63186;51.204;6.536;2023-12-20T01:27:57;101178.16;;;5.77;100.00
74659;BME280;63186;51.204;6.536;2023-12-20T01:30:22;101174.84;;;5.70;100.00
74659;BME280;63186;51.204;6.536;2023-12-20T01:32:47;101174.28;;;5.58;100.00
74659;BME280;63186;51.204;6.536;2023-12-20T01:35:13;101173.13;;;5.43;100.00
74659;BME280;63186;51.204;6.536;2023-12-20T01:37:38;101168.41;;;5.29;100.00
74659;BME280;63186;51.204;6.536;2023-12-20T01:40:04;101173.81;;;5.18;100.00
74659;BME280;63186;51.204;6.536;2023-12-20T01:42:29;101176.22;;;5.10;100.00
74659;BME280;63186;51.204;6.536;2023-12-20T01:44:54;101182.44;;;5.00;100.00
74659;BME280;63186;51.204;6.536;2023-12-20T01:47:20;101187.63;;;4.97;100.00
74659;BME280;63186;51.204;6.536;2023-12-20T01:49:46;101185.66;;;4.92;100.00
74659;BME280;63186;51.204;6.536;2023-12-20T01:52:12;101182.34;;;4.85;100.00
74659;BME280;63186;51.204;6.536;2023-12-20T01:54:38;101173.56;;;4.78;100.00
74659;BME280;63186;51.204;6.536;2023-12-20T01:57:05;101174.03;;;4.65;100.00
74659;BME280;63186;51.204;6.536;2023-12-20T01:59:31;101178.56;;;4.54;100.00
74659;BME280;63186;51.204;6.536;2023-12-20T02:01:56;101174.91;;;4.43;100.00
74659;BME280;63186;51.204;6.536;2023-12-20T02:04:22;101197.25;;;4.40;100.00
74659;BME280;63186;51.204;6.536;2023-12-20T02:06:48;101196.38;;;4.34;100.00
74659;BME280;63186;51.204;6.536;2023-12-20T02:09:15;101198.25;;;4.29;100.00
74659;BME280;63186;51.204;6.536;2023-12-20T02:11:40;101201.56;;;4.36;100.00
74659;BME280;63186;51.204;6.536;2023-12-20T02:14:05;101188.88;;;4.47;100.00
74659;BME280;63186;51.204;6.536;2023-12-20T02:16:30;101183.78;;;4.60;100.00
74659;BME280;63186;51.204;6.536;2023-12-20T02:18:56;101174.06;;;4.70;100.00
74659;BME280;63186;51.204;6.536;2023-12-20T02:21:25;101183.09;;;4.75;100.00
74659;BME280;63186;51.204;6.536;2023-12-20T02:23:50;101189.94;;;4.78;100.00
74659;BME280;63186;51.204;6.536;2023-12-20T02:26:16;101196.47;;;4.77;100.00
74659;BME280;63186;51.204;6.536;2023-12-20T02:28:41;101192.34;;;4.74;100.00
74659;BME280;63186;51.204;6.536;2023-12-20T02:31:07;101199.38;;;4.65;100.00
74659;BME280;63186;51.204;6.536;2023-12-20T02:33:32;101193.84;;;4.55;100.00
74659;BME280;63186;51.204;6.536;2023-12-20T02:35:57;101199.06;;;4.56;100.00
74659;BME280;63186;51.204;6.536;2023-12-20T02:38:22;101193.38;;;4.63;100.00
74659;BME280;63186;51.204;6.536;2023-12-20T02:40:48;101193.66;;;4.67;100.00
74659;BME280;63186;51.204;6.536;2023-12-20T02:43:13;101205.13;;;4.69;100.00
74659;BME280;63186;51.204;6.536;2023-12-20T02:45:38;101200.19;;;4.66;100.00
74659;BME280;63186;51.204;6.536;2023-12-20T02:48:04;101190.66;;;4.68;100.00
74659;BME280;63186;51.204;6.536;2023-12-20T02:50:29;101190.94;;;4.67;100.00
74659;BME280;63186;51.204;6.536;2023-12-20T02:52:54;101194.66;;;4.55;100.00
74659;BME280;63186;51.204;6.536;2023-12-20T02:55:20;101192.38;;;4.42;100.00
74659;BME280;63186;51.204;6.536;2023-12-20T02:57:45;101184.06;;;4.27;100.00
74659;BME280;63186;51.204;6.536;2023-12-20T03:00:11;101192.19;;;4.22;100.00
74659;BME280;63186;51.204;6.536;2023-12-20T03:02:36;101189.38;;;4.12;100.00
74659;BME280;63186;51.204;6.536;2023-12-20T03:05:02;101192.53;;;4.03;100.00
74659;BME280;63186;51.204;6.536;2023-12-20T03:07:27;101185.34;;;3.92;100.00
74659;BME280;63186;51.204;6.536;2023-12-20T03:09:53;101201.72;;;3.97;100.00
74659;BME280;63186;51.204;6.536;2023-12-20T03:12:18;101190.81;;;3.92;100.00
74659;BME280;63186;51.204;6.536;2023-12-20T03:14:44;101193.53;;;3.92;100.00
74659;BME280;63186;51.204;6.536;2023-12-20T03:17:09;101184.56;;;3.97;100.00
74659;BME280;63186;51.204;6.536;2023-12-20T03:19:35;101191.78;;;4.08;100.00
74659;BME280;63186;51.204;6.536;2023-12-20T03:22:00;101190.94;;;4.07;100.00
74659;BME280;63186;51.204;6.536;2023-12-20T03:24:26;101173.72;;;4.02;100.00
74659;BME280;63186;51.204;6.536;2023-12-20T03:26:51;101176.97;;;3.99;100.00
74659;BME280;63186;51.204;6.536;2023-12-20T03:29:16;101178.34;;;4.01;100.00
74659;BME280;63186;51.204;6.536;2023-12-20T03:31:42;101172.84;;;3.96;100.00
74659;BME280;63186;51.204;6.536;2023-12-20T03:34:07;101174.75;;;3.96;100.00
74659;BME280;63186;51.204;6.536;2023-12-20T03:36:32;101164.94;;;3.95;100.00
74659;BME280;63186;51.204;6.536;2023-12-20T03:38:57;101160.09;;;4.02;100.00
74659;BME280;63186;51.204;6.536;2023-12-20T03:41:23;101164.78;;;4.06;100.00
74659;BME280;63186;51.204;6.536;2023-12-20T03:43:48;101161.50;;;4.04;100.00
74659;BME280;63186;51.204;6.536;2023-12-20T03:46:13;101173.19;;;4.00;100.00
74659;BME280;63186;51.204;6.536;2023-12-20T03:48:38;101177.34;;;4.07;100.00
74659;BME280;63186;51.204;6.536;2023-12-20T03:51:04;101186.94;;;4.15;100.00
74659;BME280;63186;51.204;6.536;2023-12-20T03:53:29;101179.31;;;4.17;100.00
74659;BME280;63186;51.204;6.536;2023-12-20T03:55:54;101172.44;;;4.09;100.00
74659;BME280;63186;51.204;6.536;2023-12-20T03:58:19;101176.19;;;4.03;100.00
74659;BME280;63186;51.204;6.536;2023-12-20T04:00:45;101175.34;;;3.98;100.00
74659;BME280;63186;51.204;6.536;2023-12-20T04:03:10;101162.22;;;3.95;100.00
74659;BME280;63186;51.204;6.536;2023-12-20T04:05:38;101163.56;;;3.92;100.00
74659;BME280;63186;51.204;6.536;2023-12-20T04:08:04;101153.22;;;3.94;100.00
74659;BME280;63186;51.204;6.536;2023-12-20T04:10:29;101151.38;;;4.00;100.00
74659;BME280;63186;51.204;6.536;2023-12-20T04:12:54;101163.03;;;3.95;100.00
74659;BME280;63186;51.204;6.536;2023-12-20T04:15:20;101161.66;;;3.93;100.00
74659;BME280;63186;51.204;6.536;2023-12-20T04:17:45;101166.78;;;3.89;100.00
74659;BME280;63186;51.204;6.536;2023-12-20T04:20:10;101177.19;;;3.92;100.00
74659;BME280;63186;51.204;6.536;2023-12-20T04:22:36;101178.28;;;3.91;100.00
74659;BME280;63186;51.204;6.536;2023-12-20T04:25:01;101171.13;;;3.85;100.00
74659;BME280;63186;51.204;6.536;2023-12-20T04:27:27;101177.06;;;3.82;100.00
74659;BME280;63186;51.204;6.536;2023-12-20T04:29:52;101178.66;;;3.78;100.00
74659;BME280;63186;51.204;6.536;2023-12-20T04:32:17;101175.34;;;3.76;100.00
74659;BME280;63186;51.204;6.536;2023-12-20T04:34:43;101178.44;;;3.85;100.00
74659;BME280;63186;51.204;6.536;2023-12-20T04:37:08;101173.66;;;3.92;100.00
74659;BME280;63186;51.204;6.536;2023-12-20T04:39:33;101176.66;;;3.95;100.00
74659;BME280;63186;51.204;6.536;2023-12-20T04:41:58;101174.81;;;4.01;100.00
74659;BME280;63186;51.204;6.536;2023-12-20T04:44:24;101176.16;;;3.98;100.00
74659;BME280;63186;51.204;6.536;2023-12-20T04:46:49;101173.31;;;3.88;100.00
74659;BME280;63186;51.204;6.536;2023-12-20T04:49:14;101178.97;;;3.81;100.00
74659;BME280;63186;51.204;6.536;2023-12-20T04:51:39;101190.06;;;3.75;100.00
74659;BME280;63186;51.204;6.536;2023-12-20T04:54:05;101184.28;;;3.71;100.00
74659;BME280;63186;51.204;6.536;2023-12-20T04:56:30;101187.84;;;3.72;100.00
74659;BME280;63186;51.204;6.536;2023-12-20T04:58:55;101196.31;;;3.75;100.00
74659;BME280;63186;51.204;6.536;2023-12-20T05:01:20;101186.38;;;3.86;100.00
74659;BME280;63186;51.204;6.536;2023-12-20T05:03:46;101173.13;;;3.95;100.00
74659;BME280;63186;51.204;6.536;2023-12-20T05:06:11;101184.13;;;4.05;100.00
74659;BME280;63186;51.204;6.536;2023-12-20T05:08:37;101183.31;;;4.04;100.00
74659;BME280;63186;51.204;6.536;2023-12-20T05:11:02;101180.59;;;4.04;100.00
74659;BME280;63186;51.204;6.536;2023-12-20T05:13:28;101181.41;;;4.05;100.00
74659;BME280;63186;51.204;6.536;2023-12-20T05:15:53;101177.06;;;4.09;100.00
74659;BME280;63186;51.204;6.536;2023-12-20T05:18:19;101176.31;;;4.14;100.00
74659;BME280;63186;51.204;6.536;2023-12-20T05:20:45;101183.94;;;4.17;100.00
74659;BME280;63186;51.204;6.536;2023-12-20T05:23:11;101188.09;;;4.19;100.00
74659;BME280;63186;51.204;6.536;2023-12-20T05:25:36;101183.25;;;4.26;100.00
74659;BME280;63186;51.204;6.536;2023-12-20T05:28:02;101187.34;;;4.29;100.00
74659;BME280;63186;51.204;6.536;2023-12-20T05:30:27;101168.47;;;4.22;100.00
74659;BME280;63186;51.204;6.536;2023-12-20T05:32:52;101167.16;;;4.30;100.00
74659;BME280;63186;51.204;6.536;2023-12-20T05:35:17;101179.75;;;4.36;100.00
74659;BME280;63186;51.204;6.536;2023-12-20T05:37:43;101176.53;;;4.39;100.00
74659;BME280;63186;51.204;6.536;2023-12-20T05:40:08;101184.19;;;4.42;100.00
74659;BME280;63186;51.204;6.536;2023-12-20T05:42:37;101180.13;;;4.45;100.00
74659;BME280;63186;51.204;6.536;2023-12-20T05:45:03;101175.50;;;4.45;100.00
74659;BME280;63186;51.204;6.536;2023-12-20T05:47:29;101173.31;;;4.47;100.00
74659;BME280;63186;51.204;6.536;2023-12-20T05:49:54;101158.06;;;4.46;100.00
74659;BME280;63186;51.204;6.536;2023-12-20T05:52:19;101162.97;;;4.49;100.00
74659;BME280;63186;51.204;6.536;2023-12-20T05:54:45;101171.75;;;4.51;100.00
74659;BME280;63186;51.204;6.536;2023-12-20T05:57:10;101166.28;;;4.51;100.00
74659;BME280;63186;51.204;6.536;2023-12-20T05:59:35;101176.66;;;4.54;100.00
74659;BME280;63186;51.204;6.536;2023-12-20T06:02:00;101169.28;;;4.55;100.00
74659;BME280;63186;51.204;6.536;2023-12-20T06:04:26;101175.06;;;4.58;100.00
74659;BME280;63186;51.204;6.536;2023-12-20T06:06:51;101168.22;;;4.56;100.00
74659;BME280;63186;51.204;6.536;2023-12-20T06:09:16;101172.84;;;4.55;100.00
74659;BME280;63186;51.204;6.536;2023-12-20T06:11:42;101172.28;;;4.53;100.00
74659;BME280;63186;51.204;6.536;2023-12-20T06:14:07;101161.66;;;4.52;100.00
74659;BME280;63186;51.204;6.536;2023-12-20T06:16:32;101179.66;;;4.53;100.00
74659;BME280;63186;51.204;6.536;2023-12-20T06:18:58;101178.88;;;4.57;100.00
74659;BME280;63186;51.204;6.536;2023-12-20T06:21:23;101181.06;;;4.60;100.00
74659;BME280;63186;51.204;6.536;2023-12-20T06:23:48;101192.53;;;4.62;100.00
74659;BME280;63186;51.204;6.536;2023-12-20T06:26:14;101180.81;;;4.62;100.00
74659;BME280;63186;51.204;6.536;2023-12-20T06:28:39;101195.56;;;4.66;100.00
74659;BME280;63186;51.204;6.536;2023-12-20T06:31:05;101192.28;;;4.64;100.00
74659;BME280;63186;51.204;6.536;2023-12-20T06:33:30;101189.03;;;4.67;100.00
74659;BME280;63186;51.204;6.536;2023-12-20T06:35:58;101193.97;;;4.70;100.00
74659;BME280;63186;51.204;6.536;2023-12-20T06:38:23;101192.63;;;4.73;100.00
74659;BME280;63186;51.204;6.536;2023-12-20T06:40:49;101194.25;;;4.74;100.00
74659;BME280;63186;51.204;6.536;2023-12-20T06:43:14;101187.47;;;4.76;100.00
74659;BME280;63186;51.204;6.536;2023-12-20T06:45:39;101183.34;;;4.74;100.00
74659;BME280;63186;51.204;6.536;2023-12-20T06:48:05;101184.47;;;4.78;100.00
74659;BME280;63186;51.204;6.536;2023-12-20T06:50:30;101196.47;;;4.77;100.00
74659;BME280;63186;51.204;6.536;2023-12-20T06:52:55;101186.66;;;4.81;100.00
74659;BME280;63186;51.204;6.536;2023-12-20T06:55:21;101189.97;;;4.83;100.00
74659;BME280;63186;51.204;6.536;2023-12-20T06:57:46;101177.16;;;4.83;100.00
74659;BME280;63186;51.204;6.536;2023-12-20T07:00:12;101177.44;;;4.87;100.00
74659;BME280;63186;51.204;6.536;2023-12-20T07:02:37;101164.38;;;4.89;100.00
74659;BME280;63186;51.204;6.536;2023-12-20T07:05:02;101166.84;;;4.90;100.00
74659;BME280;63186;51.204;6.536;2023-12-20T07:07:28;101179.94;;;4.94;100.00
74659;BME280;63186;51.204;6.536;2023-12-20T07:09:53;101190.03;;;4.93;100.00
74659;BME280;63186;51.204;6.536;2023-12-20T07:12:18;101189.47;;;4.91;100.00
74659;BME280;63186;51.204;6.536;2023-12-20T07:14:45;101190.84;;;4.94;100.00
74659;BME280;63186;51.204;6.536;2023-12-20T07:17:10;101182.41;;;4.95;100.00
74659;BME280;63186;51.204;6.536;2023-12-20T07:19:38;101185.13;;;4.95;100.00
74659;BME280;63186;51.204;6.536;2023-12-20T07:22:04;101187.06;;;5.00;100.00
74659;BME280;63186;51.204;6.536;2023-12-20T07:24:29;101177.81;;;5.01;100.00
74659;BME280;63186;51.204;6.536;2023-12-20T07:26:55;101184.38;;;5.05;100.00
74659;BME280;63186;51.204;6.536;2023-12-20T07:29:20;101176.47;;;5.08;100.00
74659;BME280;63186;51.204;6.536;2023-12-20T07:31:45;101178.16;;;5.09;100.00
74659;BME280;63186;51.204;6.536;2023-12-20T07:34:11;101181.69;;;5.10;100.00
74659;BME280;63186;51.204;6.536;2023-12-20T07:36:36;101183.59;;;5.09;100.00
74659;BME280;63186;51.204;6.536;2023-12-20T07:39:01;101172.41;;;5.11;100.00
74659;BME280;63186;51.204;6.536;2023-12-20T07:41:28;101174.34;;;5.15;100.00
74659;BME280;63186;51.204;6.536;2023-12-20T07:43:53;101180.38;;;5.17;100.00
74659;BME280;63186;51.204;6.536;2023-12-20T07:46:20;101182.28;;;5.17;100.00
74659;BME280;63186;51.204;6.536;2023-12-20T07:48:47;101185.50;;;5.14;100.00
74659;BME280;63186;51.204;6.536;2023-12-20T07:51:13;101180.88;;;5.09;100.00
74659;BME280;63186;51.204;6.536;2023-12-20T07:53:38;101175.16;;;5.11;100.00
74659;BME280;63186;51.204;6.536;2023-12-20T07:56:21;101174.91;;;5.17;100.00
74659;BME280;63186;51.204;6.536;2023-12-20T07:58:47;101177.91;;;5.16;100.00
74659;BME280;63186;51.204;6.536;2023-12-20T08:01:13;101177.31;;;5.14;100.00
74659;BME280;63186;51.204;6.536;2023-12-20T08:03:38;101191.00;;;5.19;100.00
74659;BME280;63186;51.204;6.536;2023-12-20T08:06:04;101163.44;;;5.15;100.00
74659;BME280;63186;51.204;6.536;2023-12-20T08:08:29;101190.47;;;5.17;100.00
74659;BME280;63186;51.204;6.536;2023-12-20T08:10:55;101192.06;;;5.13;100.00
74659;BME280;63186;51.204;6.536;2023-12-20T08:13:22;101187.66;;;5.07;100.00
74659;BME280;63186;51.204;6.536;2023-12-20T08:15:51;101187.66;;;5.07;100.00
74659;BME280;63186;51.204;6.536;2023-12-20T08:18:16;101183.25;;;5.01;100.00
74659;BME280;63186;51.204;6.536;2023-12-20T08:20:41;101203.75;;;5.08;100.00
74659;BME280;63186;51.204;6.536;2023-12-20T08:23:06;101184.66;;;5.08;100.00
74659;BME280;63186;51.204;6.536;2023-12-20T08:25:32;101184.97;;;5.12;100.00
74659;BME280;63186;51.204;6.536;2023-12-20T08:27:57;101183.59;;;5.14;100.00
74659;BME280;63186;51.204;6.536;2023-12-20T08:30:22;101186.06;;;5.11;100.00
74659;BME280;63186;51.204;6.536;2023-12-20T08:32:48;101184.94;;;5.07;100.00
74659;BME280;63186;51.204;6.536;2023-12-20T08:35:13;101192.31;;;5.06;100.00
74659;BME280;63186;51.204;6.536;2023-12-20T08:37:39;101199.97;;;5.09;100.00
74659;BME280;63186;51.204;6.536;2023-12-20T08:40:05;101188.25;;;5.09;100.00
74659;BME280;63186;51.204;6.536;2023-12-20T08:42:30;101198.34;;;5.13;100.00
74659;BME280;63186;51.204;6.536;2023-12-20T08:44:57;101201.66;;;5.15;100.00
74659;BME280;63186;51.204;6.536;2023-12-20T08:47:23;101204.38;;;5.15;100.00
74659;BME280;63186;51.204;6.536;2023-12-20T08:49:49;101206.56;;;5.18;100.00
74659;BME280;63186;51.204;6.536;2023-12-20T08:52:14;101204.66;;;5.19;100.00
74659;BME280;63186;51.204;6.536;2023-12-20T08:54:39;101213.13;;;5.17;100.00
74659;BME280;63186;51.204;6.536;2023-12-20T08:57:05;101212.00;;;5.13;100.00
74659;BME280;63186;51.204;6.536;2023-12-20T08:59:32;101211.47;;;5.16;100.00
74659;BME280;63186;51.204;6.536;2023-12-20T09:01:57;101196.47;;;5.19;100.00
74659;BME280;63186;51.204;6.536;2023-12-20T09:04:22;101204.16;;;5.27;100.00
74659;BME280;63186;51.204;6.536;2023-12-20T09:06:47;101193.81;;;5.29;100.00
74659;BME280;63186;51.204;6.536;2023-12-20T09:09:13;101186.72;;;5.28;100.00
74659;BME280;63186;51.204;6.536;2023-12-20T09:11:41;101188.03;;;5.26;100.00
74659;BME280;63186;51.204;6.536;2023-12-20T09:14:07;101189.16;;;5.30;100.00
74659;BME280;63186;51.204;6.536;2023-12-20T09:16:32;101177.13;;;5.26;100.00
74659;BME280;63186;51.204;6.536;2023-12-20T09:18:58;101179.34;;;5.29;100.00
74659;BME280;63186;51.204;6.536;2023-12-20T09:21:23;101189.19;;;5.35;100.00
74659;BME280;63186;51.204;6.536;2023-12-20T09:23:49;101175.53;;;5.30;100.00
74659;BME280;63186;51.204;6.536;2023-12-20T09:26:14;101183.44;;;5.31;100.00
74659;BME280;63186;51.204;6.536;2023-12-20T09:28:39;101180.97;;;5.30;100.00
74659;BME280;63186;51.204;6.536;2023-12-20T09:31:05;101179.34;;;5.29;100.00
74659;BME280;63186;51.204;6.536;2023-12-20T09:33:31;101175.53;;;5.30;100.00
74659;BME280;63186;51.204;6.536;2023-12-20T09:35:57;101181.56;;;5.37;100.00
74659;BME280;63186;51.204;6.536;2023-12-20T09:38:22;101159.41;;;5.33;100.00
74659;BME280;63186;51.204;6.536;2023-12-20T09:40:48;101163.03;;;5.44;100.00
74659;BME280;63186;51.204;6.536;2023-12-20T09:43:19;101163.03;;;5.49;100.00
74659;BME280;63186;51.204;6.536;2023-12-20T09:45:47;101169.06;;;5.51;100.00
74659;BME280;63186;51.204;6.536;2023-12-20T09:48:13;101171.53;;;5.58;100.00
74659;BME280;63186;51.204;6.536;2023-12-20T09:50:41;101171.84;;;5.61;100.00
74659;BME280;63186;51.204;6.536;2023-12-20T09:53:08;101174.56;;;5.66;100.00
74659;BME280;63186;51.204;6.536;2023-12-20T09:55:35;101173.50;;;5.67;100.00
74659;BME280;63186;51.204;6.536;2023-12-20T09:58:01;101169.94;;;5.72;100.00
74659;BME280;63186;51.204;6.536;2023-12-20T10:00:26;101174.31;;;5.73;100.00
74659;BME280;63186;51.204;6.536;2023-12-20T10:02:59;101181.44;;;5.74;100.00
74659;BME280;63186;51.204;6.536;2023-12-20T10:05:28;101186.34;;;5.77;100.00
74659;BME280;63186;51.204;6.536;2023-12-20T10:07:53;101180.06;;;5.77;100.00
74659;BME280;63186;51.204;6.536;2023-12-20T10:10:18;101185.00;;;5.75;100.00
74659;BME280;63186;51.204;6.536;2023-12-20T10:15:28;101191.81;;;5.77;100.00
74659;BME280;63186;51.204;6.536;2023-12-20T10:17:53;101184.44;;;5.78;100.00
74659;BME280;63186;51.204;6.536;2023-12-20T10:20:19;101182.25;;;5.75;100.00
74659;BME280;63186;51.204;6.536;2023-12-20T10:22:45;101171.84;;;5.71;100.00
74659;BME280;63186;51.204;6.536;2023-12-20T10:25:11;101176.22;;;5.72;100.00
74659;BME280;63186;51.204;6.536;2023-12-20T10:27:36;101152.22;;;5.75;100.00
74659;BME280;63186;51.204;6.536;2023-12-20T10:30:02;101153.28;;;5.79;100.00
74659;BME280;63186;51.204;6.536;2023-12-20T10:32:27;101155.25;;;5.88;100.00
74659;BME280;63186;51.204;6.536;2023-12-20T10:34:54;101152.56;;;5.93;100.00
74659;BME280;63186;51.204;6.536;2023-12-20T10:37:19;101150.38;;;5.95;100.00
74659;BME280;63186;51.204;6.536;2023-12-20T10:39:50;101144.09;;;5.95;100.00
74659;BME280;63186;51.204;6.536;2023-12-20T10:42:18;101149.81;;;5.98;100.00
74659;BME280;63186;51.204;6.536;2023-12-20T10:44:46;101150.38;;;5.95;100.00
74659;BME280;63186;51.204;6.536;2023-12-20T10:47:13;101146.00;;;5.99;100.00
74659;BME280;63186;51.204;6.536;2023-12-20T10:49:38;101146.28;;;6.03;100.00
74659;BME280;63186;51.204;6.536;2023-12-20T10:52:05;101151.47;;;6.05;100.00
74659;BME280;63186;51.204;6.536;2023-12-20T10:54:31;101143.81;;;6.02;100.00
74659;BME280;63186;51.204;6.536;2023-12-20T10:56:57;101141.63;;;6.04;100.00
74659;BME280;63186;51.204;6.536;2023-12-20T10:59:24;101153.66;;;6.03;100.00
74659;BME280;63186;51.204;6.536;2023-12-20T11:01:50;101149.84;;;6.04;100.00
74659;BME280;63186;51.204;6.536;2023-12-20T11:04:21;101153.94;;;6.01;100.00
74659;BME280;63186;51.204;6.536;2023-12-20T11:06:53;101158.03;;;6.04;100.00
74659;BME280;63186;51.204;6.536;2023-12-20T11:09:22;101155.03;;;6.00;100.00
74659;BME280;63186;51.204;6.536;2023-12-20T11:11:59;101133.09;;;5.90;100.00
74659;BME280;63186;51.204;6.536;2023-12-20T11:14:53;101152.81;;;5.92;100.00
74659;BME280;63186;51.204;6.536;2023-12-20T11:17:20;101131.47;;;5.84;100.00
74659;BME280;63186;51.204;6.536;2023-12-20T11:22:19;101135.31;;;5.88;100.00
74659;BME280;63186;51.204;6.536;2023-12-20T11:24:45;101124.91;;;5.85;100.00
74659;BME280;63186;51.204;6.536;2023-12-20T11:27:12;101132.00;;;5.86;100.00
74659;BME280;63186;51.204;6.536;2023-12-20T11:29:38;101130.34;;;5.85;100.00
74659;BME280;63186;51.204;6.536;2023-12-20T11:35:01;101126.53;;;5.81;100.00
74659;BME280;63186;51.204;6.536;2023-12-20T11:37:30;101129.81;;;5.78;100.00
74659;BME280;63186;51.204;6.536;2023-12-20T11:40:05;101139.91;;;5.77;100.00
74659;BME280;63186;51.204;6.536;2023-12-20T11:42:37;101129.78;;;5.72;100.00
74659;BME280;63186;51.204;6.536;2023-12-20T11:45:03;101129.81;;;5.78;100.00
74659;BME280;63186;51.204;6.536;2023-12-20T11:47:30;101125.44;;;5.82;100.00
74659;BME280;63186;51.204;6.536;2023-12-20T11:49:56;101118.63;;;5.84;100.00
74659;BME280;63186;51.204;6.536;2023-12-20T11:52:21;101127.34;;;5.86;100.00
74659;BME280;63186;51.204;6.536;2023-12-20T11:54:47;101120.53;;;5.89;100.00
74659;BME280;63186;51.204;6.536;2023-12-20T11:57:13;101108.78;;;5.88;100.00
74659;BME280;63186;51.204;6.536;2023-12-20T11:59:38;101105.56;;;5.96;100.00
74659;BME280;63186;51.204;6.536;2023-12-20T12:02:04;101112.94;;;6.06;100.00
74659;BME280;63186;51.204;6.536;2023-12-20T12:04:29;101106.38;;;6.12;100.00
74659;BME280;63186;51.204;6.536;2023-12-20T12:06:54;101095.44;;;6.12;100.00
74659;BME280;63186;51.204;6.536;2023-12-20T12:09:19;101095.72;;;6.16;100.00
74659;BME280;63186;51.204;6.536;2023-12-20T12:11:45;101089.44;;;6.10;100.00
74659;BME280;63186;51.204;6.536;2023-12-20T12:14:10;101096.53;;;6.06;100.00
74659;BME280;63186;51.204;6.536;2023-12-20T12:16:36;101096.56;;;6.01;100.00
74659;BME280;63186;51.204;6.536;2023-12-20T12:19:01;101099.53;;;5.99;100.00
74659;BME280;63186;51.204;6.536;2023-12-20T12:21:26;101097.91;;;5.98;100.00
74659;BME280;63186;51.204;6.536;2023-12-20T12:23:52;101089.97;;;5.97;100.00
74659;BME280;63186;51.204;6.536;2023-12-20T12:26:18;101094.06;;;6.05;100.00
74659;BME280;63186;51.204;6.536;2023-12-20T12:28:43;101075.75;;;6.05;100.00
74659;BME280;63186;51.204;6.536;2023-12-20T12:31:13;101088.34;;;6.01;100.00
74659;BME280;63186;51.204;6.536;2023-12-20T12:33:40;101078.25;;;6.02;100.00
74659;BME280;63186;51.204;6.536;2023-12-20T12:36:07;101082.59;;;5.92;100.00
74659;BME280;63186;51.204;6.536;2023-12-20T12:38:33;101075.72;;;5.90;100.00
74659;BME280;63186;51.204;6.536;2023-12-20T12:40:59;101073.25;;;5.83;100.00
74659;BME280;63186;51.204;6.536;2023-12-20T12:43:25;101082.00;;;5.85;100.00
74659;BME280;63186;51.204;6.536;2023-12-20T12:45:50;101067.56;;;5.95;100.00
74659;BME280;63186;51.204;6.536;2023-12-20T12:48:16;101064.56;;;6.02;100.00
74659;BME280;63186;51.204;6.536;2023-12-20T12:50:41;101061.00;;;6.06;100.00